Time;durP1;ratioP1;P1;durP2;ratioP2;P2;SDS_P1;SDS_P2;PMS_P1;PMS_P2;Temp;Humidity;BMP_temperature;BMP_pressure;BME280_temperature;BME280_humidity;BME280_pressure;Samples;Min_cycle;Max_cycle;Signal;HPM_P1;HPM_P2
2022/03/29 00:02:21;;;;;;;18.88;9.23;;;;;;;6.84;80.44;99669.83;738950;1155;115592;-73
2022/03/29 00:18:29;;;;;;;17.78;9.05;;;;;;;6.78;81.12;99650.31;740671;1155;115409;-72
2022/03/29 00:33:50;;;;;;;19.75;9.93;;;;;;;6.79;81.71;99643.30;739007;1155;115330;-71
2022/03/29 00:48:53;;;;;;;16.37;8.50;;;;;;;6.73;82.15;99626.39;738898;1155;114561;-70
2022/03/29 01:03:55;;;;;;;17.50;8.68;;;;;;;6.54;82.09;99603.61;738814;1155;115247;-71
2022/03/29 01:18:58;;;;;;;16.25;9.20;;;;;;;6.41;82.64;99590.75;738797;1155;114531;-71
2022/03/29 01:34:01;;;;;;;26.50;11.50;;;;;;;6.30;83.10;99594.23;739028;1155;115184;-74
2022/03/29 01:49:05;;;;;;;23.80;10.67;;;;;;;6.42;84.63;99588.98;739976;1155;115181;-71
2022/03/29 02:04:07;;;;;;;18.13;9.58;;;;;;;6.66;86.13;99588.73;738725;1155;115567;-71
2022/03/29 02:19:11;;;;;;;23.02;10.00;;;;;;;7.05;86.98;99578.55;738789;1155;114905;-71
2022/03/29 02:34:13;;;;;;;18.55;9.70;;;;;;;7.00;86.83;99567.67;739953;1155;114511;-76
2022/03/29 02:49:15;;;;;;;21.88;10.43;;;;;;;6.87;87.89;99554.84;739890;1155;114233;-75
2022/03/29 03:04:17;;;;;;;23.87;10.33;;;;;;;6.88;87.71;99550.47;739634;1155;114988;-75
2022/03/29 03:19:19;;;;;;;19.40;11.70;;;;;;;6.84;89.42;99536.86;740304;1155;115222;-75
2022/03/29 03:34:22;;;;;;;19.30;11.08;;;;;;;6.78;89.35;99538.20;739458;1155;115349;-75
2022/03/29 03:49:24;;;;;;;21.23;10.38;;;;;;;6.88;89.08;99555.69;739815;1155;114685;-74
2022/03/29 04:04:26;;;;;;;23.37;9.57;;;;;;;6.97;89.28;99553.11;739430;1155;115296;-76
2022/03/29 04:19:28;;;;;;;22.70;11.33;;;;;;;7.16;89.17;99549.75;739954;1154;113679;-76
2022/03/29 04:34:30;;;;;;;22.68;10.73;;;;;;;7.32;88.85;99551.90;738962;1155;115491;-76
2022/03/29 04:49:34;;;;;;;22.48;11.48;;;;;;;7.34;89.85;99556.98;739655;1154;115519;-76
2022/03/29 05:04:35;;;;;;;25.23;12.00;;;;;;;7.53;89.35;99558.00;741626;1154;115632;-75
2022/03/29 05:19:38;;;;;;;23.15;11.23;;;;;;;7.68;88.77;99563.66;739238;1155;114738;-76
2022/03/29 05:34:40;;;;;;;23.93;13.17;;;;;;;7.74;88.24;99560.52;738810;1154;113958;-76
2022/03/29 05:49:42;;;;;;;35.43;15.48;;;;;;;7.87;87.45;99555.05;738586;1154;115187;-75
2022/03/29 06:04:44;;;;;;;27.40;13.60;;;;;;;8.04;88.29;99569.20;738818;1155;115574;-71
2022/03/29 06:19:48;;;;;;;26.50;14.28;;;;;;;8.30;87.72;99587.78;738742;1155;115378;-70
2022/03/29 06:34:50;;;;;;;28.13;14.27;;;;;;;8.73;86.72;99586.54;739279;1155;114927;-75
2022/03/29 06:49:53;;;;;;;30.75;13.65;;;;;;;8.68;85.25;99598.39;740711;1155;114729;-75
2022/03/29 07:04:55;;;;;;;39.27;18.73;;;;;;;8.81;83.34;99611.99;739048;1155;113956;-76
2022/03/29 07:19:58;;;;;;;43.53;26.78;;;;;;;9.00;82.19;99605.92;739813;1155;115260;-75
2022/03/29 07:35:00;;;;;;;30.28;13.63;;;;;;;9.06;78.63;99591.44;739506;1154;113954;-74
2022/03/29 07:50:07;;;;;;;17.53;7.45;;;;;;;10.97;71.37;99588.77;739827;1155;115133;-75
2022/03/29 08:05:30;;;;;;;16.00;7.53;;;;;;;10.98;67.11;99586.98;739451;1155;115214;-78
2022/03/29 08:20:32;;;;;;;24.88;11.63;;;;;;;10.59;65.24;99590.80;739298;1155;115546;-75
2022/03/29 08:35:37;;;;;;;24.98;10.58;;;;;;;10.76;65.38;99591.75;739146;1155;115298;-75
2022/03/29 08:50:41;;;;;;;25.05;11.88;;;;;;;10.46;63.50;99593.81;739246;1155;114071;-75
2022/03/29 09:05:43;;;;;;;21.80;10.03;;;;;;;11.28;62.96;99596.18;739423;1155;114056;-76
2022/03/29 09:20:47;;;;;;;26.55;11.33;;;;;;;12.08;59.89;99576.58;739523;1155;115622;-78
2022/03/29 09:36:05;;;;;;;20.73;8.83;;;;;;;12.82;59.38;99576.56;739606;1155;114589;-78
2022/03/29 09:51:15;;;;;;;15.83;7.53;;;;;;;12.37;56.91;99569.22;739725;1155;114684;-76
2022/03/29 10:06:17;;;;;;;16.20;5.93;;;;;;;12.13;55.14;99570.84;739153;1155;115314;-75
2022/03/29 10:21:20;;;;;;;21.70;10.48;;;;;;;13.88;53.96;99562.37;739737;1155;114274;-76
2022/03/29 10:36:22;;;;;;;14.58;8.53;;;;;;;14.79;52.87;99547.49;739752;1155;115767;-74
2022/03/29 10:51:24;;;;;;;172.47;54.53;;;;;;;13.10;51.53;99549.84;739324;1154;114629;-76
2022/03/29 11:06:28;;;;;;;58.55;30.63;;;;;;;14.25;51.26;99531.77;739483;1155;115709;-75
2022/03/29 11:21:33;;;;;;;20.17;10.30;;;;;;;14.78;49.17;99522.09;739133;1155;114323;-74
2022/03/29 11:36:37;;;;;;;10.53;5.25;;;;;;;14.09;49.06;99496.61;739495;1155;115592;-75
2022/03/29 11:51:41;;;;;;;16.75;12.38;;;;;;;15.24;48.47;99462.95;739602;1155;115371;-73
2022/03/29 12:06:52;;;;;;;9.63;5.20;;;;;;;15.13;47.37;99456.30;739732;1154;114833;-72
2022/03/29 12:21:59;;;;;;;18.57;8.03;;;;;;;14.62;48.34;99449.14;740932;1155;115718;-72
2022/03/29 12:37:04;;;;;;;18.30;7.35;;;;;;;15.13;48.27;99440.45;739625;1155;114350;-74
2022/03/29 12:52:10;;;;;;;26.78;12.68;;;;;;;14.83;48.30;99428.31;741101;1155;115483;-72
2022/03/29 13:07:45;;;;;;;15.45;6.98;;;;;;;14.45;49.24;99423.91;740173;1155;115574;-74
2022/03/29 13:22:48;;;;;;;18.53;8.97;;;;;;;13.50;49.35;99415.53;740290;1155;115530;-75
2022/03/29 13:37:51;;;;;;;30.50;13.58;;;;;;;14.99;46.10;99404.32;739569;1155;114741;-74
2022/03/29 13:52:53;;;;;;;12.73;6.27;;;;;;;14.44;47.18;99382.71;740875;1155;115746;-73
2022/03/29 14:07:57;;;;;;;11.55;4.90;;;;;;;14.22;47.60;99377.32;739661;1155;115647;-74
2022/03/29 14:23:00;;;;;;;14.80;6.98;;;;;;;13.12;47.15;99363.55;739784;1155;115013;-77
2022/03/29 14:38:03;;;;;;;19.65;8.33;;;;;;;12.67;47.70;99359.85;739448;1155;114259;-77
2022/03/29 14:53:06;;;;;;;40.55;15.95;;;;;;;13.12;47.88;99337.22;739576;1155;114029;-77
2022/03/29 15:08:09;;;;;;;15.13;7.45;;;;;;;13.47;47.51;99321.86;739582;1155;115881;-74
2022/03/29 15:23:12;;;;;;;54.85;21.08;;;;;;;12.82;47.47;99310.73;739988;1154;114950;-74
2022/03/29 15:38:14;;;;;;;23.37;11.30;;;;;;;12.49;48.43;99318.80;740087;1155;115508;-78
2022/03/29 15:53:17;;;;;;;27.97;13.10;;;;;;;12.25;49.52;99324.98;739957;1155;115448;-75
2022/03/29 16:08:21;;;;;;;15.95;9.20;;;;;;;11.51;49.56;99327.72;739800;1155;114340;-75
2022/03/29 16:23:24;;;;;;;52.70;15.65;;;;;;;11.15;50.04;99343.75;739581;1154;115001;-72
2022/03/29 16:38:27;;;;;;;55.60;19.28;;;;;;;10.73;50.45;99340.23;739643;1155;114809;-76
2022/03/29 16:53:29;;;;;;;30.33;11.43;;;;;;;10.46;50.91;99355.19;739848;1155;114094;-72
2022/03/29 17:08:32;;;;;;;151.27;50.93;;;;;;;10.20;51.33;99349.14;739792;1155;115468;-72
2022/03/29 17:23:35;;;;;;;77.20;26.50;;;;;;;9.69;52.35;99355.05;739971;1155;114602;-73
2022/03/29 17:38:38;;;;;;;56.05;24.90;;;;;;;9.24;53.50;99348.14;739856;1155;115097;-73
2022/03/29 17:53:40;;;;;;;119.08;48.58;;;;;;;8.81;54.39;99353.08;740312;1155;114960;-73
2022/03/29 18:08:46;;;;;;;118.90;45.87;;;;;;;8.44;53.98;99356.54;740301;1154;115075;-75
2022/03/29 18:23:50;;;;;;;50.20;25.00;;;;;;;8.30;54.18;99361.27;740337;1155;115144;-73
2022/03/29 18:38:53;;;;;;;71.25;27.20;;;;;;;8.26;53.65;99364.30;740060;1154;114873;-77
2022/03/29 18:53:55;;;;;;;36.25;13.93;;;;;;;8.01;54.18;99379.64;739912;1155;114398;-76
2022/03/29 19:08:57;;;;;;;30.00;12.33;;;;;;;7.88;52.94;99379.94;739787;1155;115153;-72
2022/03/29 19:24:00;;;;;;;20.15;9.00;;;;;;;7.48;53.39;99391.35;740006;1154;115437;-72
2022/03/29 19:39:40;;;;;;;58.70;21.53;;;;;;;7.31;54.32;99388.47;746038;1155;114777;-70
2022/03/29 19:54:44;;;;;;;92.40;37.97;;;;;;;7.30;53.85;99391.23;743568;1155;113963;-71
2022/03/29 20:09:46;;;;;;;36.23;11.23;;;;;;;7.16;54.32;99395.03;739374;1154;115190;-70
2022/03/29 20:24:49;;;;;;;21.47;9.53;;;;;;;6.90;55.12;99384.27;739670;1154;114774;-71
2022/03/29 20:39:52;;;;;;;24.28;9.53;;;;;;;6.43;56.02;99375.20;739729;1154;114624;-71
2022/03/29 20:54:54;;;;;;;19.60;5.85;;;;;;;6.62;55.97;99379.66;739530;1154;114401;-72
2022/03/29 21:09:57;;;;;;;25.50;10.48;;;;;;;6.08;57.10;99358.17;739800;1155;115037;-72
2022/03/29 21:24:59;;;;;;;30.25;10.80;;;;;;;5.93;59.05;99360.25;739507;1155;114519;-71
2022/03/29 21:40:02;;;;;;;22.23;7.80;;;;;;;5.98;60.16;99346.90;739342;1155;115429;-72
2022/03/29 21:55:06;;;;;;;23.93;6.87;;;;;;;6.03;59.55;99349.09;739179;1155;115374;-71
2022/03/29 22:10:08;;;;;;;23.38;7.63;;;;;;;6.07;59.69;99350.48;739163;1155;114261;-71
2022/03/29 22:25:11;;;;;;;10.88;5.38;;;;;;;6.10;59.61;99358.06;743072;1155;115348;-71
2022/03/29 22:40:13;;;;;;;20.63;7.13;;;;;;;5.98;60.02;99344.30;757222;1154;115408;-70
2022/03/29 22:55:16;;;;;;;15.70;6.58;;;;;;;5.99;61.06;99343.31;739289;1154;115385;-71
2022/03/29 23:10:18;;;;;;;21.30;8.43;;;;;;;5.67;61.08;99328.58;740186;1155;114056;-71
2022/03/29 23:25:21;;;;;;;14.43;5.73;;;;;;;5.72;61.52;99333.42;738914;1155;114902;-71
2022/03/29 23:40:23;;;;;;;11.43;4.28;;;;;;;5.64;61.33;99334.05;739300;1155;115249;-72
2022/03/29 23:55:25;;;;;;;5.70;2.70;;;;;;;5.60;61.82;99325.66;740242;1154;114959;-71
